Ali Cat — MZCL8 — position and weather

sailwx.info

Track history (hours):
 
Tides and Currents Weather Stations Pressure Air Temp Water Temp Dewpoint Dewpoint Depression Visibility Wind Speed Wind Dir Waves Ship Positions

Ali Cat

Operator: MRCC Clyde

Last reported at 2019-Aug-20 09:39 UTC. Time now 2019-Aug-20 10:05 UTC.
Position N 55°58' W 004°50'.

Length 19 m.

Type: Passenger vessel. MMSI: 235056506.

Date/timePositionNaut miles runAvg speedWind from/ knotsBaromVisibWave heightAir tempDewpointWater temp
2019-Aug-20 09:39N 55°58' W 004°50'210.3
2019-Aug-20 09:30N 55°57' W 004°53'1 0.6
2019-Aug-20 08:34N 55°58' W 004°52'110.0
2019-Aug-20 08:29N 55°57' W 004°53'1 1.4
2019-Aug-20 07:36N 55°58' W 004°51'1 9.9
2019-Aug-20 07:29N 55°57' W 004°53'1 2.6
2019-Aug-20 06:56N 55°58' W 004°50'1 2.0
2019-Aug-20 06:28N 55°57' W 004°52'1 0.1
2019-Aug-19 20:48N 55°57' W 004°53'1 3.7
2019-Aug-19 20:30N 55°57' W 004°55'3 3.6
2019-Aug-19 19:39N 55°58' W 004°50'210.7
2019-Aug-19 19:30N 55°57' W 004°52'2 2.0
2019-Aug-19 18:39N 55°58' W 004°50'210.9
2019-Aug-19 18:28N 55°57' W 004°53'2 2.3
2019-Aug-19 17:38N 55°58' W 004°50'210.8
2019-Aug-19 17:29N 55°57' W 004°53'2 1.9
2019-Aug-19 16:39N 55°58' W 004°50'210.9
2019-Aug-19 16:29N 55°57' W 004°53'2 2.3
2019-Aug-19 15:38N 55°58' W 004°49'211.6
2019-Aug-19 15:30N 55°57' W 004°52'0 0.5
2019-Aug-19 14:35N 55°57' W 004°51'111.5
2019-Aug-19 14:30N 55°57' W 004°53'1 0.4
2019-Aug-19 11:35N 55°58' W 004°51'110.5
2019-Aug-19 11:30N 55°57' W 004°52'1 1.7
2019-Aug-19 10:39N 55°58' W 004°50'210.3
2019-Aug-19 10:27N 55°57' W 004°53'2 2.0
2019-Aug-19 09:37N 55°58' W 004°50'110.6
2019-Aug-19 09:29N 55°57' W 004°53'1 1.2
2019-Aug-19 08:36N 55°58' W 004°51'110.4
2019-Aug-19 08:29N 55°57' W 004°53'1 1.9
2019-Aug-19 08:00N 55°58' W 004°51'1 1.4
2019-Aug-19 07:30N 55°57' W 004°52'2 1.9
2019-Aug-19 06:35N 55°58' W 004°49'110.1
2019-Aug-19 06:30N 55°57' W 004°51'1 1.7
2019-Aug-19 05:51N 55°58' W 004°49'2 0.1
2019-Aug-17 20:48N 55°57' W 004°53'1 3.7
2019-Aug-17 20:30N 55°57' W 004°55'1 1.4
2019-Aug-17 19:30N 55°57' W 004°52'0 0.3
2019-Aug-17 18:27N 55°57' W 004°53'0 0.2
2019-Aug-17 17:27N 55°57' W 004°53'1 1.2
2019-Aug-17 16:33N 55°58' W 004°51'111.3
2019-Aug-17 16:29N 55°57' W 004°53'1 1.3
2019-Aug-17 15:35N 55°58' W 004°51'111.5
2019-Aug-17 15:29N 55°57' W 004°53'2 2.6
2019-Aug-17 14:42N 55°58' W 004°49'311.3
2019-Aug-17 14:28N 55°57' W 004°54'2 0.5
2019-Aug-17 11:05N 55°58' W 004°51'111.0
2019-Aug-17 10:58N 55°57' W 004°53'2 1.0
2019-Aug-17 09:15N 55°58' W 004°50'311.0
2019-Aug-17 09:00N 55°57' W 004°55'2 2.2
2019-Aug-17 08:02N 55°57' W 004°51'011.4
2019-Aug-17 08:00N 55°57' W 004°52'0 0.4
2019-Aug-17 07:02N 55°57' W 004°52'110.6
2019-Aug-17 06:59N 55°57' W 004°52'1 1.3
2019-Aug-17 06:06N 55°58' W 004°51'110.3
2019-Aug-17 05:58N 55°57' W 004°53'1 2.1
2019-Aug-17 05:30N 55°58' W 004°52'1 0.1
2019-Aug-16 20:47N 55°57' W 004°53'0 0.3
2019-Aug-16 19:29N 55°57' W 004°52'0 0.4
2019-Aug-16 18:28N 55°57' W 004°53'1 1.0
2019-Aug-16 17:35N 55°58' W 004°51'1 9.3
2019-Aug-16 17:30N 55°57' W 004°53'1 1.6
2019-Aug-16 16:37N 55°58' W 004°50'110.7
2019-Aug-16 16:30N 55°57' W 004°53'1 0.7
2019-Aug-16 15:35N 55°57' W 004°51'110.1
2019-Aug-16 15:30N 55°57' W 004°53'0 0.4
2019-Aug-16 14:31N 55°57' W 004°52'011.2
2019-Aug-16 14:30N 55°57' W 004°53'1 0.9
2019-Aug-16 13:33N 55°58' W 004°51'111.9
2019-Aug-16 13:29N 55°57' W 004°53'1 1.7
2019-Aug-16 12:37N 55°58' W 004°50'211.1
2019-Aug-16 12:27N 55°57' W 004°53'2 2.2
2019-Aug-16 11:37N 55°58' W 004°50'211.3
2019-Aug-16 11:25N 55°57' W 004°54'0 0.1
2019-Aug-16 10:24N 55°57' W 004°54'0 0.3
2019-Aug-16 09:26N 55°57' W 004°54'0 0.3
2019-Aug-16 08:28N 55°57' W 004°53'1 1.5
2019-Aug-16 07:35N 55°58' W 004°51'211.0
2019-Aug-16 07:25N 55°57' W 004°54'2 2.9
2019-Aug-16 06:34N 55°58' W 004°50'110.4
2019-Aug-16 06:28N 55°58' W 004°52'1 0.1
2019-Aug-15 22:24N 55°58' W 004°50'0 0.1
2019-Aug-15 20:56N 55°58' W 004°51'2 5.7
2019-Aug-15 20:30N 55°57' W 004°55'1 0.7
2019-Aug-15 19:26N 55°57' W 004°53'1 1.1
2019-Aug-15 18:32N 55°58' W 004°52'011.1
2019-Aug-15 18:30N 55°57' W 004°52'0 0.4
2019-Aug-15 17:34N 55°57' W 004°52'111.2
2019-Aug-15 17:30N 55°57' W 004°53'1 0.6
2019-Aug-15 16:34N 55°57' W 004°52'110.3
2019-Aug-15 16:31N 55°57' W 004°53'0 0.2
2019-Aug-15 15:29N 55°57' W 004°53'1 1.2
2019-Aug-15 14:34N 55°57' W 004°51'110.6
2019-Aug-15 14:30N 55°57' W 004°52'0 0.5
2019-Aug-15 13:33N 55°57' W 004°52'111.2
2019-Aug-15 13:30N 55°57' W 004°53'0 0.2
2019-Aug-15 12:34N 55°57' W 004°52'110.4
2019-Aug-15 12:30N 55°57' W 004°53'1 0.4
2019-Aug-15 08:35N 55°58' W 004°51'110.5
2019-Aug-15 08:29N 55°57' W 004°53'2 3.1
2019-Aug-15 07:58N 55°58' W 004°50'1 3.1
2019-Aug-15 07:30N 55°57' W 004°53'1 1.2
2019-Aug-15 06:30N 55°58' W 004°51'1 0.1
2019-Aug-14 20:49N 55°57' W 004°52'1 0.4
2019-Aug-14 19:27N 55°57' W 004°53'0 0.3
2019-Aug-14 18:28N 55°57' W 004°53'0 0.4
2019-Aug-14 17:31N 55°57' W 004°52'110.5
2019-Aug-14 17:27N 55°57' W 004°53'1 1.7
2019-Aug-14 16:36N 55°58' W 004°51'110.3
2019-Aug-14 16:30N 55°57' W 004°53'0 0.4
2019-Aug-14 15:32N 55°57' W 004°52'0 9.5
2019-Aug-14 15:29N 55°57' W 004°53'1 1.5
2019-Aug-14 14:37N 55°58' W 004°51'110.6
2019-Aug-14 14:30N 55°57' W 004°53'0 0.1
2019-Aug-14 13:30N 55°57' W 004°53'1 1.4
2019-Aug-14 12:37N 55°58' W 004°51'2 9.6
2019-Aug-14 12:28N 55°57' W 004°53'2 0.6
2019-Aug-14 08:40N 55°58' W 004°49'210.7
2019-Aug-14 08:29N 55°57' W 004°53'1 1.3
2019-Aug-14 07:35N 55°58' W 004°51'110.9
2019-Aug-14 07:30N 55°57' W 004°52'1 0.6
2019-Aug-14 06:30N 55°57' W 004°51'1 1.9
2019-Aug-14 05:59N 55°57' W 004°53'1 0.1
2019-Aug-13 20:54N 55°58' W 004°51'1 2.2
2019-Aug-13 20:25N 55°57' W 004°53'1 1.1
2019-Aug-13 19:35N 55°58' W 004°51'110.8
2019-Aug-13 19:30N 55°57' W 004°52'1 0.8
2019-Aug-13 18:35N 55°58' W 004°51'111.0
2019-Aug-13 18:28N 55°57' W 004°53'0 0.2
2019-Aug-13 17:31N 55°57' W 004°53'010.6
2019-Aug-13 17:30N 55°57' W 004°53'0 0.5
2019-Aug-13 16:29N 55°57' W 004°54'2 2.5
2019-Aug-13 15:40N 55°58' W 004°51'210.5
2019-Aug-13 15:29N 55°57' W 004°54'1 1.6
2019-Aug-13 14:34N 55°57' W 004°51'110.5
2019-Aug-13 14:28N 55°57' W 004°53'1 1.0
2019-Aug-13 13:24N 55°57' W 004°55'2 2.5
2019-Aug-13 12:35N 55°57' W 004°51'111.0
2019-Aug-13 12:27N 55°57' W 004°54'0 0.3
2019-Aug-13 11:27N 55°57' W 004°54'1 1.4
2019-Aug-13 10:32N 55°57' W 004°52'110.9
2019-Aug-13 10:27N 55°57' W 004°53'1 1.5
2019-Aug-13 09:34N 55°58' W 004°51'111.4
2019-Aug-13 09:30N 55°57' W 004°52'0 0.4
2019-Aug-13 08:28N 55°57' W 004°53'2 2.3
2019-Aug-13 07:38N 55°58' W 004°50'211.1
2019-Aug-13 07:27N 55°57' W 004°53'2 1.9
2019-Aug-13 06:31N 55°58' W 004°50'110.9
2019-Aug-13 06:28N 55°57' W 004°51'0 0.0
2019-Aug-12 20:54N 55°57' W 004°51'2 1.2
2019-Aug-12 19:24N 55°57' W 004°54'2 3.0
2019-Aug-12 18:38N 55°58' W 004°50'211.2
2019-Aug-12 18:26N 55°57' W 004°54'0 0.1
2019-Aug-12 17:30N 55°57' W 004°54'3 4.7
2019-Aug-12 16:50N 55°58' W 004°49'410.3
2019-Aug-12 16:29N 55°57' W 004°55'1 0.2
2019-Aug-12 12:26N 55°57' W 004°54'1 1.2
2019-Aug-12 11:35N 55°57' W 004°52'111.7
2019-Aug-12 11:29N 55°57' W 004°54'1 0.5
2019-Aug-12 10:28N 55°57' W 004°54'1 1.4
2019-Aug-12 09:35N 55°57' W 004°51'110.7
2019-Aug-12 09:30N 55°57' W 004°53'1 1.7
2019-Aug-12 08:37N 55°58' W 004°50'110.6
2019-Aug-12 08:30N 55°57' W 004°53'1 1.8
2019-Aug-12 08:00N 55°58' W 004°51'1 2.6
2019-Aug-12 07:27N 55°57' W 004°53'2 2.6
2019-Aug-12 06:35N 55°58' W 004°50'111.2
2019-Aug-12 06:30N 55°57' W 004°51'1 2.0
2019-Aug-12 06:00N 55°57' W 004°53'1 0.1
2019-Aug-11 16:06N 55°58' W 004°50'110.7
2019-Aug-11 15:59N 55°57' W 004°53'1 1.3
2019-Aug-11 15:06N 55°58' W 004°51'110.6
2019-Aug-11 15:00N 55°57' W 004°52'0 0.5
2019-Aug-11 14:03N 55°57' W 004°52'110.2
2019-Aug-11 13:56N 55°57' W 004°54'1 0.7
2019-Aug-11 13:01N 55°57' W 004°52'010.5
2019-Aug-11 13:00N 55°57' W 004°53'1 0.1
2019-Aug-10 20:55N 55°57' W 004°51'1 0.8
2019-Aug-10 19:29N 55°57' W 004°53'2 2.0
2019-Aug-10 18:41N 55°58' W 004°50'210.6
2019-Aug-10 18:30N 55°57' W 004°54'3 3.7
2019-Aug-10 17:47N 55°58' W 004°49'310.8
2019-Aug-10 17:29N 55°57' W 004°55'2 2.4
2019-Aug-10 16:39N 55°57' W 004°51'210.8
2019-Aug-10 16:30N 55°57' W 004°54'2 0.4
2019-Aug-10 12:35N 55°57' W 004°51'110.3
2019-Aug-10 12:28N 55°57' W 004°54'1 0.6
2019-Aug-10 11:30N 55°57' W 004°53'1 0.8
2019-Aug-10 10:34N 55°57' W 004°51'110.5
2019-Aug-10 10:30N 55°57' W 004°52'  
Track history (hours):
 
Tides and Currents Weather Stations Pressure Air Temp Water Temp Dewpoint Dewpoint Depression Visibility Wind Speed Wind Dir Waves Ship Positions

Ali Cat

Operator: MRCC Clyde

Last reported at 2019-Aug-20 09:39 UTC. Time now 2019-Aug-20 10:05 UTC.
Position N 55°58' W 004°50'.

Length 19 m.

Type: Passenger vessel. MMSI: 235056506.

Date/timePositionNaut miles runAvg speedWind from/ knotsBaromVisibWave heightAir tempDewpointWater temp
2019-Aug-20 09:39N 55°58' W 004°50'210.3
2019-Aug-20 09:30N 55°57' W 004°53'1 0.6
2019-Aug-20 08:34N 55°58' W 004°52'110.0
2019-Aug-20 08:29N 55°57' W 004°53'1 1.4
2019-Aug-20 07:36N 55°58' W 004°51'1 9.9
2019-Aug-20 07:29N 55°57' W 004°53'1 2.6
2019-Aug-20 06:56N 55°58' W 004°50'1 2.0
2019-Aug-20 06:28N 55°57' W 004°52'1 0.1
2019-Aug-19 20:48N 55°57' W 004°53'1 3.7
2019-Aug-19 20:30N 55°57' W 004°55'3 3.6
2019-Aug-19 19:39N 55°58' W 004°50'210.7
2019-Aug-19 19:30N 55°57' W 004°52'2 2.0
2019-Aug-19 18:39N 55°58' W 004°50'210.9
2019-Aug-19 18:28N 55°57' W 004°53'2 2.3
2019-Aug-19 17:38N 55°58' W 004°50'210.8
2019-Aug-19 17:29N 55°57' W 004°53'2 1.9
2019-Aug-19 16:39N 55°58' W 004°50'210.9
2019-Aug-19 16:29N 55°57' W 004°53'2 2.3
2019-Aug-19 15:38N 55°58' W 004°49'211.6
2019-Aug-19 15:30N 55°57' W 004°52'0 0.5
2019-Aug-19 14:35N 55°57' W 004°51'111.5
2019-Aug-19 14:30N 55°57' W 004°53'1 0.4
2019-Aug-19 11:35N 55°58' W 004°51'110.5
2019-Aug-19 11:30N 55°57' W 004°52'1 1.7
2019-Aug-19 10:39N 55°58' W 004°50'210.3
2019-Aug-19 10:27N 55°57' W 004°53'2 2.0
2019-Aug-19 09:37N 55°58' W 004°50'110.6
2019-Aug-19 09:29N 55°57' W 004°53'1 1.2
2019-Aug-19 08:36N 55°58' W 004°51'110.4
2019-Aug-19 08:29N 55°57' W 004°53'1 1.9
2019-Aug-19 08:00N 55°58' W 004°51'1 1.4
2019-Aug-19 07:30N 55°57' W 004°52'2 1.9
2019-Aug-19 06:35N 55°58' W 004°49'110.1
2019-Aug-19 06:30N 55°57' W 004°51'1 1.7
2019-Aug-19 05:51N 55°58' W 004°49'2 0.1
2019-Aug-17 20:48N 55°57' W 004°53'1 3.7
2019-Aug-17 20:30N 55°57' W 004°55'1 1.4
2019-Aug-17 19:30N 55°57' W 004°52'0 0.3
2019-Aug-17 18:27N 55°57' W 004°53'0 0.2
2019-Aug-17 17:27N 55°57' W 004°53'1 1.2
2019-Aug-17 16:33N 55°58' W 004°51'111.3
2019-Aug-17 16:29N 55°57' W 004°53'1 1.3
2019-Aug-17 15:35N 55°58' W 004°51'111.5
2019-Aug-17 15:29N 55°57' W 004°53'2 2.6
2019-Aug-17 14:42N 55°58' W 004°49'311.3
2019-Aug-17 14:28N 55°57' W 004°54'2 0.5
2019-Aug-17 11:05N 55°58' W 004°51'111.0
2019-Aug-17 10:58N 55°57' W 004°53'2 1.0
2019-Aug-17 09:15N 55°58' W 004°50'311.0
2019-Aug-17 09:00N 55°57' W 004°55'2 2.2
2019-Aug-17 08:02N 55°57' W 004°51'011.4
2019-Aug-17 08:00N 55°57' W 004°52'0 0.4
2019-Aug-17 07:02N 55°57' W 004°52'110.6
2019-Aug-17 06:59N 55°57' W 004°52'1 1.3
2019-Aug-17 06:06N 55°58' W 004°51'110.3
2019-Aug-17 05:58N 55°57' W 004°53'1 2.1
2019-Aug-17 05:30N 55°58' W 004°52'1 0.1
2019-Aug-16 20:47N 55°57' W 004°53'0 0.3
2019-Aug-16 19:29N 55°57' W 004°52'0 0.4
2019-Aug-16 18:28N 55°57' W 004°53'1 1.0
2019-Aug-16 17:35N 55°58' W 004°51'1 9.3
2019-Aug-16 17:30N 55°57' W 004°53'1 1.6
2019-Aug-16 16:37N 55°58' W 004°50'110.7
2019-Aug-16 16:30N 55°57' W 004°53'1 0.7
2019-Aug-16 15:35N 55°57' W 004°51'110.1
2019-Aug-16 15:30N 55°57' W 004°53'0 0.4
2019-Aug-16 14:31N 55°57' W 004°52'011.2
2019-Aug-16 14:30N 55°57' W 004°53'1 0.9
2019-Aug-16 13:33N 55°58' W 004°51'111.9
2019-Aug-16 13:29N 55°57' W 004°53'1 1.7
2019-Aug-16 12:37N 55°58' W 004°50'211.1
2019-Aug-16 12:27N 55°57' W 004°53'2 2.2
2019-Aug-16 11:37N 55°58' W 004°50'211.3
2019-Aug-16 11:25N 55°57' W 004°54'0 0.1
2019-Aug-16 10:24N 55°57' W 004°54'0 0.3
2019-Aug-16 09:26N 55°57' W 004°54'0 0.3
2019-Aug-16 08:28N 55°57' W 004°53'1 1.5
2019-Aug-16 07:35N 55°58' W 004°51'211.0
2019-Aug-16 07:25N 55°57' W 004°54'2 2.9
2019-Aug-16 06:34N 55°58' W 004°50'110.4
2019-Aug-16 06:28N 55°58' W 004°52'1 0.1
2019-Aug-15 22:24N 55°58' W 004°50'0 0.1
2019-Aug-15 20:56N 55°58' W 004°51'2 5.7
2019-Aug-15 20:30N 55°57' W 004°55'1 0.7
2019-Aug-15 19:26N 55°57' W 004°53'1 1.1
2019-Aug-15 18:32N 55°58' W 004°52'011.1
2019-Aug-15 18:30N 55°57' W 004°52'0 0.4
2019-Aug-15 17:34N 55°57' W 004°52'111.2
2019-Aug-15 17:30N 55°57' W 004°53'1 0.6
2019-Aug-15 16:34N 55°57' W 004°52'110.3
2019-Aug-15 16:31N 55°57' W 004°53'0 0.2
2019-Aug-15 15:29N 55°57' W 004°53'1 1.2
2019-Aug-15 14:34N 55°57' W 004°51'110.6
2019-Aug-15 14:30N 55°57' W 004°52'0 0.5
2019-Aug-15 13:33N 55°57' W 004°52'111.2
2019-Aug-15 13:30N 55°57' W 004°53'0 0.2
2019-Aug-15 12:34N 55°57' W 004°52'110.4
2019-Aug-15 12:30N 55°57' W 004°53'1 0.4
2019-Aug-15 08:35N 55°58' W 004°51'110.5
2019-Aug-15 08:29N 55°57' W 004°53'2 3.1
2019-Aug-15 07:58N 55°58' W 004°50'1 3.1
2019-Aug-15 07:30N 55°57' W 004°53'1 1.2
2019-Aug-15 06:30N 55°58' W 004°51'1 0.1
2019-Aug-14 20:49N 55°57' W 004°52'1 0.4
2019-Aug-14 19:27N 55°57' W 004°53'0 0.3
2019-Aug-14 18:28N 55°57' W 004°53'0 0.4
2019-Aug-14 17:31N 55°57' W 004°52'110.5
2019-Aug-14 17:27N 55°57' W 004°53'1 1.7
2019-Aug-14 16:36N 55°58' W 004°51'110.3
2019-Aug-14 16:30N 55°57' W 004°53'0 0.4
2019-Aug-14 15:32N 55°57' W 004°52'0 9.5
2019-Aug-14 15:29N 55°57' W 004°53'1 1.5
2019-Aug-14 14:37N 55°58' W 004°51'110.6
2019-Aug-14 14:30N 55°57' W 004°53'0 0.1
2019-Aug-14 13:30N 55°57' W 004°53'1 1.4
2019-Aug-14 12:37N 55°58' W 004°51'2 9.6
2019-Aug-14 12:28N 55°57' W 004°53'2 0.6
2019-Aug-14 08:40N 55°58' W 004°49'210.7
2019-Aug-14 08:29N 55°57' W 004°53'1 1.3
2019-Aug-14 07:35N 55°58' W 004°51'110.9
2019-Aug-14 07:30N 55°57' W 004°52'1 0.6
2019-Aug-14 06:30N 55°57' W 004°51'1 1.9
2019-Aug-14 05:59N 55°57' W 004°53'1 0.1
2019-Aug-13 20:54N 55°58' W 004°51'1 2.2
2019-Aug-13 20:25N 55°57' W 004°53'1 1.1
2019-Aug-13 19:35N 55°58' W 004°51'110.8
2019-Aug-13 19:30N 55°57' W 004°52'1 0.8
2019-Aug-13 18:35N 55°58' W 004°51'111.0
2019-Aug-13 18:28N 55°57' W 004°53'0 0.2
2019-Aug-13 17:31N 55°57' W 004°53'010.6
2019-Aug-13 17:30N 55°57' W 004°53'0 0.5
2019-Aug-13 16:29N 55°57' W 004°54'2 2.5
2019-Aug-13 15:40N 55°58' W 004°51'210.5
2019-Aug-13 15:29N 55°57' W 004°54'1 1.6
2019-Aug-13 14:34N 55°57' W 004°51'110.5
2019-Aug-13 14:28N 55°57' W 004°53'1 1.0
2019-Aug-13 13:24N 55°57' W 004°55'2 2.5
2019-Aug-13 12:35N 55°57' W 004°51'111.0
2019-Aug-13 12:27N 55°57' W 004°54'0 0.3
2019-Aug-13 11:27N 55°57' W 004°54'1 1.4
2019-Aug-13 10:32N 55°57' W 004°52'110.9
2019-Aug-13 10:27N 55°57' W 004°53'1 1.5
2019-Aug-13 09:34N 55°58' W 004°51'111.4
2019-Aug-13 09:30N 55°57' W 004°52'0 0.4
2019-Aug-13 08:28N 55°57' W 004°53'2 2.3
2019-Aug-13 07:38N 55°58' W 004°50'211.1
2019-Aug-13 07:27N 55°57' W 004°53'2 1.9
2019-Aug-13 06:31N 55°58' W 004°50'110.9
2019-Aug-13 06:28N 55°57' W 004°51'0 0.0
2019-Aug-12 20:54N 55°57' W 004°51'2 1.2
2019-Aug-12 19:24N 55°57' W 004°54'2 3.0
2019-Aug-12 18:38N 55°58' W 004°50'211.2
2019-Aug-12 18:26N 55°57' W 004°54'0 0.1
2019-Aug-12 17:30N 55°57' W 004°54'3 4.7
2019-Aug-12 16:50N 55°58' W 004°49'410.3
2019-Aug-12 16:29N 55°57' W 004°55'1 0.2
2019-Aug-12 12:26N 55°57' W 004°54'1 1.2
2019-Aug-12 11:35N 55°57' W 004°52'111.7
2019-Aug-12 11:29N 55°57' W 004°54'1 0.5
2019-Aug-12 10:28N 55°57' W 004°54'1 1.4
2019-Aug-12 09:35N 55°57' W 004°51'110.7
2019-Aug-12 09:30N 55°57' W 004°53'1 1.7
2019-Aug-12 08:37N 55°58' W 004°50'110.6
2019-Aug-12 08:30N 55°57' W 004°53'1 1.8
2019-Aug-12 08:00N 55°58' W 004°51'1 2.6
2019-Aug-12 07:27N 55°57' W 004°53'2 2.6
2019-Aug-12 06:35N 55°58' W 004°50'111.2
2019-Aug-12 06:30N 55°57' W 004°51'1 2.0
2019-Aug-12 06:00N 55°57' W 004°53'1 0.1
2019-Aug-11 16:06N 55°58' W 004°50'110.7
2019-Aug-11 15:59N 55°57' W 004°53'1 1.3
2019-Aug-11 15:06N 55°58' W 004°51'110.6
2019-Aug-11 15:00N 55°57' W 004°52'0 0.5
2019-Aug-11 14:03N 55°57' W 004°52'110.2
2019-Aug-11 13:56N 55°57' W 004°54'1 0.7
2019-Aug-11 13:01N 55°57' W 004°52'010.5
2019-Aug-11 13:00N 55°57' W 004°53'1 0.1
2019-Aug-10 20:55N 55°57' W 004°51'1 0.8
2019-Aug-10 19:29N 55°57' W 004°53'2 2.0
2019-Aug-10 18:41N 55°58' W 004°50'210.6
2019-Aug-10 18:30N 55°57' W 004°54'3 3.7
2019-Aug-10 17:47N 55°58' W 004°49'310.8
2019-Aug-10 17:29N 55°57' W 004°55'2 2.4
2019-Aug-10 16:39N 55°57' W 004°51'210.8
2019-Aug-10 16:30N 55°57' W 004°54'2 0.4
2019-Aug-10 12:35N 55°57' W 004°51'110.3
2019-Aug-10 12:28N 55°57' W 004°54'1 0.6
2019-Aug-10 11:30N 55°57' W 004°53'1 0.8
2019-Aug-10 10:34N 55°57' W 004°51'110.5
2019-Aug-10 10:30N 55°57' W 004°52'  

Dump ship's entire track history